createdAt,value
2023-01-17T00:00:54.128Z,1.55
2023-01-17T00:03:33.481Z,1.63
2023-01-17T00:06:51.677Z,1.60
2023-01-17T00:10:23.243Z,1.40
2023-01-17T00:13:21.529Z,1.60
2023-01-17T00:20:02.795Z,1.45
2023-01-17T00:27:04.815Z,1.17
2023-01-17T00:33:37.250Z,1.60
2023-01-17T00:36:35.972Z,1.58
2023-01-17T00:39:22.487Z,1.70
2023-01-17T00:46:05.936Z,1.20
2023-01-17T00:49:27.042Z,1.10
2023-01-17T00:52:29.308Z,1.00
2023-01-17T00:55:41.090Z,0.90
2023-01-17T00:58:35.799Z,0.60
2023-01-17T01:01:40.520Z,0.60
2023-01-17T01:04:58.975Z,0.70
2023-01-17T01:07:59.946Z,0.70
2023-01-17T01:10:57.030Z,0.60
2023-01-17T01:16:53.005Z,0.65
2023-01-17T01:20:00.191Z,1.17
2023-01-17T01:22:48.119Z,1.00
2023-01-17T01:26:01.388Z,0.90
2023-01-17T01:29:00.262Z,1.42
2023-01-17T01:32:00.890Z,0.90
2023-01-17T01:35:05.298Z,1.00
2023-01-17T01:37:42.033Z,1.20
2023-01-17T01:40:14.657Z,0.98
2023-01-17T01:43:06.258Z,1.30
2023-01-17T01:45:33.899Z,1.20
2023-01-17T01:48:21.788Z,1.27
2023-01-17T01:50:52.899Z,1.50
2023-01-17T01:53:23.188Z,1.40
2023-01-17T01:55:53.426Z,1.00
2023-01-17T01:58:29.261Z,1.10
2023-01-17T02:00:57.515Z,1.10
2023-01-17T02:03:30.629Z,1.00
2023-01-17T02:06:28.672Z,1.17
2023-01-17T02:09:04.344Z,0.90
2023-01-17T02:11:39.901Z,0.70
2023-01-17T02:14:09.066Z,0.63
2023-01-17T02:17:27.625Z,0.50
2023-01-17T02:20:56.451Z,0.57
2023-01-17T02:24:03.287Z,0.52
2023-01-17T02:31:06.599Z,0.60
2023-01-17T02:34:22.080Z,0.60
2023-01-17T02:42:16.322Z,0.80
2023-01-17T02:46:01.421Z,1.00
2023-01-17T02:48:41.127Z,0.65
2023-01-17T02:51:30.072Z,0.80
2023-01-17T02:54:27.974Z,0.93
2023-01-17T02:57:29.916Z,0.90
2023-01-17T03:00:36.014Z,0.95
2023-01-17T03:03:35.654Z,1.10
2023-01-17T03:06:16.668Z,0.90
2023-01-17T03:08:50.002Z,0.75
2023-01-17T03:11:28.566Z,0.75
2023-01-17T03:14:10.777Z,0.70
2023-01-17T03:16:42.080Z,0.70
2023-01-17T03:33:20.951Z,0.80
2023-01-17T03:36:09.987Z,1.05
2023-01-17T03:39:04.299Z,0.80
2023-01-17T03:41:57.883Z,1.15
2023-01-17T03:44:48.033Z,0.80
2023-01-17T03:47:53.615Z,1.27
2023-01-17T03:51:04.034Z,1.17
2023-01-17T03:57:11.838Z,1.67
2023-01-17T04:00:03.721Z,1.30
2023-01-17T04:02:47.210Z,2.63
2023-01-17T04:05:59.286Z,1.65
2023-01-17T04:09:15.012Z,1.70
2023-01-17T04:11:54.552Z,1.60
2023-01-17T04:14:33.734Z,1.75
2023-01-17T04:17:53.280Z,1.73
2023-01-17T04:21:05.752Z,1.95
2023-01-17T06:50:04.352Z,4.82
2023-01-17T06:52:31.358Z,5.70
2023-01-17T06:54:58.322Z,5.63
2023-01-17T06:57:25.397Z,5.43
2023-01-17T06:59:52.453Z,5.25
2023-01-17T07:02:19.542Z,5.85
2023-01-17T07:04:46.321Z,6.07
2023-01-17T07:07:13.361Z,6.55
2023-01-17T07:09:40.270Z,6.70
2023-01-17T07:12:07.726Z,6.75
2023-01-17T07:14:34.632Z,6.95
2023-01-17T07:17:01.503Z,6.30
2023-01-17T07:19:28.365Z,7.13
2023-01-17T07:21:55.959Z,8.38
2023-01-17T07:24:24.514Z,8.27
2023-01-17T07:26:52.191Z,9.18
2023-01-17T07:29:19.539Z,9.77
2023-01-17T07:31:59.110Z,10.32
2023-01-17T07:34:25.992Z,11.13
2023-01-17T07:36:57.493Z,10.63
2023-01-17T07:39:26.860Z,10.63
2023-01-17T07:41:54.682Z,10.25
2023-01-17T07:44:21.479Z,11.60
2023-01-17T07:46:48.384Z,11.75
2023-01-17T07:49:15.209Z,11.70
2023-01-17T07:51:42.214Z,11.10
2023-01-17T07:54:14.586Z,11.85
2023-01-17T07:56:47.758Z,11.43
2023-01-17T07:59:18.649Z,10.80
2023-01-17T08:01:49.347Z,11.07
2023-01-17T08:04:18.267Z,11.88
2023-01-17T08:06:48.876Z,12.20
2023-01-17T08:09:17.998Z,10.85
2023-01-17T08:11:48.218Z,11.52
2023-01-17T08:14:16.682Z,11.27
2023-01-17T08:16:45.496Z,11.82
2023-01-17T08:19:18.801Z,11.60
2023-01-17T08:21:56.309Z,10.38
2023-01-17T08:24:26.985Z,10.13
2023-01-17T08:27:01.064Z,10.43
2023-01-17T08:29:31.141Z,8.25
2023-01-17T08:32:00.061Z,9.10
2023-01-17T08:34:28.671Z,8.50
2023-01-17T08:36:57.782Z,8.57
2023-01-17T08:39:29.271Z,8.43
2023-01-17T08:42:03.632Z,7.97
2023-01-17T08:44:46.522Z,7.70
2023-01-17T08:47:17.718Z,8.15
2023-01-17T08:49:48.512Z,7.90
2023-01-17T08:52:23.538Z,9.00
2023-01-17T08:55:00.445Z,9.57
2023-01-17T08:57:36.266Z,9.00
2023-01-17T09:00:15.385Z,9.60
2023-01-17T09:02:55.525Z,9.05
2023-01-17T09:05:27.106Z,9.10
2023-01-17T09:08:00.895Z,9.52
2023-01-17T09:10:30.787Z,10.27
2023-01-17T09:13:00.935Z,12.88
2023-01-17T09:15:32.467Z,12.23
2023-01-17T09:18:02.170Z,11.48
2023-01-17T09:20:31.512Z,10.50
2023-01-17T09:23:04.921Z,11.02
2023-01-17T09:25:33.438Z,11.45
2023-01-17T09:28:02.691Z,9.98
2023-01-17T09:30:30.621Z,9.98
2023-01-17T09:32:59.459Z,9.88
2023-01-17T09:35:29.520Z,10.18
2023-01-17T09:37:59.815Z,10.43
2023-01-17T09:40:29.577Z,10.35
2023-01-17T09:43:07.269Z,10.77
2023-01-17T09:45:39.320Z,9.75
2023-01-17T09:51:24.884Z,8.57
2023-01-17T09:54:08.700Z,8.55
2023-01-17T09:57:03.448Z,8.10
2023-01-17T10:00:06.022Z,8.57
2023-01-17T10:03:04.224Z,8.30
2023-01-17T10:05:47.369Z,7.70
2023-01-17T10:08:51.017Z,8.35
2023-01-17T10:12:01.721Z,8.20
2023-01-17T10:14:34.818Z,6.68
2023-01-17T10:17:43.290Z,7.38
2023-01-17T10:20:39.476Z,7.75
2023-01-17T10:23:38.441Z,6.63
2023-01-17T10:26:15.860Z,7.45
2023-01-17T10:28:51.505Z,7.18
2023-01-17T10:31:27.097Z,6.93
2023-01-17T10:34:09.842Z,6.88
2023-01-17T10:36:45.334Z,7.22
2023-01-17T10:39:23.387Z,7.55
2023-01-17T10:42:06.625Z,6.32
2023-01-17T10:45:29.356Z,7.30
2023-01-17T10:48:27.729Z,6.78
2023-01-17T10:51:28.903Z,7.05
2023-01-17T10:54:46.591Z,8.50
2023-01-17T10:57:22.716Z,9.25
2023-01-17T10:59:52.671Z,8.73
2023-01-17T11:02:34.374Z,10.15
2023-01-17T11:05:22.870Z,8.70
2023-01-17T11:08:08.983Z,6.78
2023-01-17T11:10:50.026Z,7.35
2023-01-17T11:13:38.987Z,8.80
2023-01-17T11:16:21.435Z,6.03
2023-01-17T11:19:30.561Z,8.02
2023-01-17T11:22:04.726Z,6.40
2023-01-17T11:24:51.585Z,6.13
2023-01-17T11:27:42.147Z,7.03
2023-01-17T11:30:19.962Z,7.32
2023-01-17T11:33:33.269Z,7.40
2023-01-17T11:36:08.693Z,9.90
2023-01-17T11:38:39.242Z,21.10
2023-01-17T11:41:38.913Z,7.63
2023-01-17T11:44:32.392Z,7.35
2023-01-17T11:47:21.511Z,7.13
2023-01-17T11:49:50.287Z,6.38
2023-01-17T11:52:33.733Z,7.43
2023-01-17T11:55:01.585Z,7.47
2023-01-17T11:57:36.144Z,7.30
2023-01-17T12:00:32.171Z,8.02
2023-01-17T12:03:25.427Z,7.28
2023-01-17T12:06:28.095Z,5.85
2023-01-17T12:09:12.266Z,5.82
2023-01-17T12:16:29.313Z,6.15
2023-01-17T12:19:25.841Z,6.78
2023-01-17T12:21:52.864Z,6.07
2023-01-17T12:24:57.554Z,6.32
2023-01-17T12:27:43.621Z,5.75
2023-01-17T12:30:41.171Z,5.65
2023-01-17T12:33:43.828Z,5.85
2023-01-17T12:36:52.223Z,4.78
2023-01-17T12:39:28.281Z,5.10
2023-01-17T12:42:13.751Z,5.50
2023-01-17T12:47:23.354Z,5.95
2023-01-17T12:50:06.461Z,4.35
2023-01-17T12:53:12.281Z,4.82
2023-01-17T12:56:11.097Z,4.05
2023-01-17T12:59:20.696Z,5.18
2023-01-17T13:02:00.575Z,5.00
2023-01-17T13:04:57.430Z,5.30
2023-01-17T13:07:46.181Z,5.40
2023-01-17T13:10:41.809Z,5.30
2023-01-17T13:13:37.145Z,5.70
2023-01-17T13:16:33.105Z,5.30
2023-01-17T13:19:24.160Z,5.07
2023-01-17T13:21:58.202Z,4.60
2023-01-17T13:24:36.300Z,5.47
2023-01-17T13:27:38.675Z,4.93
2023-01-17T13:30:31.534Z,4.40
2023-01-17T13:33:43.346Z,4.82
2023-01-17T13:36:46.833Z,4.82
2023-01-17T13:39:32.623Z,4.90
2023-01-17T13:42:50.473Z,5.47
2023-01-17T13:45:29.372Z,4.32
2023-01-17T13:48:21.001Z,4.55
2023-01-17T13:51:11.806Z,4.03
2023-01-17T13:53:42.468Z,4.30
2023-01-17T13:56:20.895Z,4.55
2023-01-17T13:58:53.460Z,4.97
2023-01-17T14:01:47.620Z,3.95
2023-01-17T14:04:25.782Z,4.60
2023-01-17T14:06:59.995Z,4.32
2023-01-17T14:09:42.642Z,4.50
2023-01-17T14:12:28.692Z,4.25
2023-01-17T14:18:03.836Z,4.25
2023-01-17T14:20:49.980Z,4.60
2023-01-17T14:23:31.894Z,4.47
2023-01-17T14:26:17.801Z,4.00
2023-01-17T14:28:44.864Z,5.18
2023-01-17T14:31:14.004Z,4.85
2023-01-17T14:33:42.135Z,4.75
2023-01-17T14:36:23.471Z,5.93
2023-01-17T14:38:51.165Z,5.60
2023-01-17T14:41:24.641Z,5.88
2023-01-17T14:43:52.526Z,4.50
2023-01-17T14:46:32.302Z,4.32
2023-01-17T14:49:23.998Z,5.07
2023-01-17T14:52:06.210Z,5.47
2023-01-17T14:54:33.553Z,4.72
2023-01-17T14:57:35.685Z,4.75
2023-01-17T15:00:19.770Z,4.65
2023-01-17T15:02:48.996Z,4.75
2023-01-17T15:05:20.852Z,5.18
2023-01-17T15:07:56.163Z,4.38
2023-01-17T15:10:31.587Z,3.80
2023-01-17T15:13:09.009Z,4.00
2023-01-17T15:15:39.638Z,4.32
2023-01-17T15:18:25.970Z,3.60
2023-01-17T15:21:01.837Z,3.72
2023-01-17T15:23:36.854Z,3.95
2023-01-17T15:28:34.997Z,4.07
2023-01-17T15:31:09.770Z,4.53
2023-01-17T15:33:41.288Z,4.70
2023-01-17T15:36:20.810Z,4.20
2023-01-17T15:39:00.321Z,5.00
2023-01-17T15:41:35.840Z,6.38
2023-01-17T15:44:04.602Z,7.18
2023-01-17T15:46:44.620Z,6.13
2023-01-17T15:49:24.935Z,5.80
2023-01-17T15:52:06.421Z,6.38
2023-01-17T15:54:56.473Z,6.85
2023-01-17T15:57:35.838Z,4.93
2023-01-17T16:00:28.736Z,5.15
2023-01-17T16:03:43.960Z,5.40
2023-01-17T16:06:59.820Z,5.53
2023-01-17T16:09:46.119Z,5.22
2023-01-17T16:12:29.564Z,7.70
2023-01-17T16:15:12.910Z,7.10
2023-01-17T16:17:54.332Z,9.55
2023-01-17T16:20:38.060Z,7.03
2023-01-17T16:23:26.568Z,8.25
2023-01-17T16:25:57.065Z,6.63
2023-01-17T16:28:29.134Z,6.75
2023-01-17T16:31:13.563Z,7.68
2023-01-17T16:33:58.153Z,6.88
2023-01-17T16:36:26.348Z,10.00
2023-01-17T16:38:53.966Z,9.45
2023-01-17T16:41:21.571Z,9.63
2023-01-17T16:43:59.128Z,9.68
2023-01-17T16:46:26.699Z,9.15
2023-01-17T16:48:53.881Z,8.88
2023-01-17T16:51:20.988Z,9.05
2023-01-17T16:53:48.348Z,11.55
2023-01-17T16:56:18.046Z,9.75
2023-01-17T16:58:45.203Z,10.32
2023-01-17T17:01:15.945Z,17.60
2023-01-17T17:03:44.351Z,10.93
2023-01-17T17:06:12.904Z,11.50
2023-01-17T17:08:40.097Z,10.60
2023-01-17T17:11:27.523Z,10.18
2023-01-17T17:13:54.636Z,9.65
2023-01-17T17:16:26.614Z,8.70
2023-01-17T17:19:06.156Z,8.35
2023-01-17T17:21:36.780Z,10.05
2023-01-17T17:24:04.584Z,8.63
2023-01-17T17:26:35.375Z,9.65
2023-01-17T17:29:05.020Z,10.15
2023-01-17T17:31:33.269Z,8.43
2023-01-17T17:34:02.707Z,8.90
2023-01-17T17:36:30.878Z,9.63
2023-01-17T17:38:59.133Z,9.48
2023-01-17T17:41:30.818Z,11.15
2023-01-17T17:44:01.346Z,10.23
2023-01-17T17:46:30.299Z,10.75
2023-01-17T17:48:58.894Z,11.10
2023-01-17T17:51:29.352Z,10.55
2023-01-17T17:54:04.153Z,11.02
2023-01-17T17:56:33.795Z,12.60
2023-01-17T17:59:02.875Z,12.35
2023-01-17T18:01:30.649Z,13.77
2023-01-17T18:04:02.905Z,12.63
2023-01-17T18:06:30.823Z,12.85
2023-01-17T18:08:57.993Z,12.45
2023-01-17T18:11:27.940Z,12.93
2023-01-17T18:13:58.842Z,13.57
2023-01-17T18:16:39.463Z,14.57
2023-01-17T18:19:16.048Z,14.38
2023-01-17T18:21:44.332Z,16.85
2023-01-17T18:24:16.477Z,17.13
2023-01-17T18:26:53.457Z,17.60
2023-01-17T18:29:34.509Z,18.30
2023-01-17T18:32:03.098Z,17.45
2023-01-17T18:34:30.280Z,19.55
2023-01-17T18:36:58.313Z,20.95
2023-01-17T18:39:28.833Z,19.83
2023-01-17T18:41:56.320Z,21.25
2023-01-17T18:44:24.276Z,18.88
2023-01-17T18:46:54.825Z,18.23
2023-01-17T18:49:22.253Z,19.95
2023-01-17T18:51:51.289Z,19.63
2023-01-17T18:54:20.388Z,19.83
2023-01-17T18:56:52.333Z,18.15
2023-01-17T18:59:20.283Z,19.48
2023-01-17T19:01:47.490Z,21.88
2023-01-17T19:04:17.307Z,21.77
2023-01-17T19:06:47.909Z,22.20
2023-01-17T19:09:16.975Z,22.08
2023-01-17T19:11:47.358Z,25.50
2023-01-17T19:14:15.707Z,24.05
2023-01-17T19:16:43.124Z,23.85
2023-01-17T19:19:15.683Z,23.33
2023-01-17T19:21:43.091Z,21.02
2023-01-17T19:24:13.173Z,18.33
2023-01-17T19:26:41.691Z,20.15
2023-01-17T19:29:09.254Z,22.25
2023-01-17T19:31:42.397Z,19.80
2023-01-17T19:34:10.427Z,20.73
2023-01-17T19:36:39.322Z,22.10
2023-01-17T19:39:12.182Z,20.90
2023-01-17T19:41:45.336Z,21.13
2023-01-17T19:44:14.376Z,20.52
2023-01-17T19:46:41.950Z,20.70
2023-01-17T19:49:10.474Z,20.90
2023-01-17T19:51:39.427Z,21.67
2023-01-17T19:54:08.472Z,22.02
2023-01-17T19:56:35.801Z,26.60
2023-01-17T19:59:03.114Z,28.65
2023-01-17T20:01:34.035Z,27.20
2023-01-17T20:04:03.793Z,26.55
2023-01-17T20:06:35.864Z,26.75
2023-01-17T20:09:05.156Z,26.70
2023-01-17T20:11:32.585Z,26.13
2023-01-17T20:14:00.418Z,27.05
2023-01-17T20:16:31.633Z,27.13
2023-01-17T20:19:02.895Z,24.45
2023-01-17T20:21:31.943Z,25.75
2023-01-17T20:24:04.550Z,26.67
2023-01-17T20:26:35.312Z,24.45
2023-01-17T20:29:11.738Z,22.40
2023-01-17T20:31:46.385Z,22.30
2023-01-17T20:34:18.632Z,20.65
2023-01-17T20:36:46.273Z,18.98
2023-01-17T20:39:15.077Z,18.42
2023-01-17T20:41:43.748Z,17.27
2023-01-17T20:44:15.382Z,19.52
2023-01-17T20:46:43.182Z,17.52
2023-01-17T20:49:15.735Z,19.35
2023-01-17T20:51:44.519Z,18.40
2023-01-17T20:54:18.829Z,19.70
2023-01-17T20:56:47.871Z,20.80
2023-01-17T20:59:19.102Z,23.50
2023-01-17T21:01:46.934Z,24.33
2023-01-17T21:04:14.772Z,24.52
2023-01-17T21:06:43.515Z,22.65
2023-01-17T21:09:14.931Z,23.70
2023-01-17T21:11:42.034Z,24.30
2023-01-17T21:14:09.411Z,23.45
2023-01-17T21:16:36.890Z,21.58
2023-01-17T21:19:04.923Z,22.58
2023-01-17T21:21:32.368Z,24.88
2023-01-17T21:24:00.598Z,25.80
2023-01-17T21:26:28.777Z,24.55
2023-01-17T21:29:07.367Z,26.95
2023-01-17T21:31:36.567Z,25.20
2023-01-17T21:34:07.606Z,28.70
2023-01-17T21:36:40.573Z,27.25
2023-01-17T21:39:15.638Z,27.15
2023-01-17T21:41:47.878Z,26.27
2023-01-17T21:44:21.508Z,27.58
2023-01-17T21:46:54.238Z,25.80
2023-01-17T21:49:22.496Z,27.70
2023-01-17T21:51:55.163Z,27.30
2023-01-17T21:54:46.867Z,28.70
2023-01-17T21:57:38.325Z,26.98
2023-01-17T22:00:09.638Z,26.35
2023-01-17T22:02:40.117Z,30.37
2023-01-17T22:05:08.852Z,29.13
2023-01-17T22:07:36.260Z,28.45
2023-01-17T22:10:03.633Z,30.90
2023-01-17T22:12:30.590Z,28.58
2023-01-17T22:14:57.638Z,29.70
2023-01-17T22:17:24.591Z,30.33
2023-01-17T22:19:52.988Z,30.27
2023-01-17T22:22:20.041Z,28.98
2023-01-17T22:24:47.257Z,28.15
2023-01-17T22:27:14.204Z,28.15
2023-01-17T22:29:41.766Z,28.30
2023-01-17T22:32:08.806Z,25.70
2023-01-17T22:34:35.687Z,23.67
2023-01-17T22:37:04.581Z,22.67
2023-01-17T22:39:31.606Z,21.05
2023-01-17T22:41:58.687Z,19.58
2023-01-17T22:44:25.843Z,21.50
2023-01-17T22:46:53.470Z,21.60
2023-01-17T22:49:23.390Z,20.55
2023-01-17T22:51:51.264Z,19.35
2023-01-17T22:54:19.269Z,18.63
2023-01-17T22:56:46.347Z,18.70
2023-01-17T22:59:13.732Z,18.20
2023-01-17T23:01:41.308Z,19.00
2023-01-17T23:04:14.382Z,19.40
2023-01-17T23:06:42.083Z,18.83
2023-01-17T23:09:13.766Z,18.05
2023-01-17T23:11:47.205Z,18.17
2023-01-17T23:14:29.984Z,16.60
2023-01-17T23:17:21.573Z,16.48
2023-01-17T23:19:54.528Z,15.10
2023-01-17T23:22:23.776Z,15.18
2023-01-17T23:24:57.209Z,16.08
2023-01-17T23:27:46.504Z,15.98
2023-01-17T23:30:25.091Z,15.65
2023-01-17T23:32:55.786Z,14.98
2023-01-17T23:35:28.327Z,15.77
2023-01-17T23:38:14.888Z,15.48
2023-01-17T23:40:43.401Z,15.98
2023-01-17T23:43:23.160Z,16.70
2023-01-17T23:45:54.634Z,15.55
2023-01-17T23:48:25.326Z,16.80
2023-01-17T23:51:00.277Z,16.65
2023-01-17T23:53:27.662Z,15.27
2023-01-17T23:55:56.965Z,16.95
2023-01-17T23:58:27.692Z,18.65
